createdAt,value
2019-01-20T00:01:42.169Z,100772.14
2019-01-20T00:06:45.750Z,100767.39
2019-01-20T00:11:49.182Z,100762.23
2019-01-20T00:16:52.611Z,100769.59
2019-01-20T00:21:56.162Z,100763.10
2019-01-20T00:26:59.598Z,100762.14
2019-01-20T00:32:03.026Z,100766.47
2019-01-20T00:37:06.454Z,100751.24
2019-01-20T00:42:09.896Z,100754.59
2019-01-20T00:47:13.403Z,100754.04
2019-01-20T00:52:17.193Z,100752.45
2019-01-20T00:57:20.628Z,100753.66
2019-01-20T01:02:24.134Z,100750.71
2019-01-20T01:07:27.591Z,100753.04
2019-01-20T01:12:31.277Z,100752.03
2019-01-20T01:17:34.714Z,100748.34
2019-01-20T01:22:38.192Z,100749.04
2019-01-20T01:27:41.686Z,100745.87
2019-01-20T01:32:45.113Z,100754.27
2019-01-20T01:37:48.608Z,100755.18
2019-01-20T01:42:52.101Z,100762.56
2019-01-20T01:47:55.542Z,100758.58
2019-01-20T01:52:58.980Z,100758.14
2019-01-20T01:58:02.415Z,100757.56
2019-01-20T02:03:05.908Z,100754.94
2019-01-20T02:08:09.343Z,100753.77
2019-01-20T02:13:12.774Z,100756.44
2019-01-20T02:18:16.276Z,100750.22
2019-01-20T02:23:19.700Z,100747.23
2019-01-20T02:28:23.384Z,100757.26
2019-01-20T02:33:26.850Z,100754.94
2019-01-20T02:38:30.260Z,100756.44
2019-01-20T02:43:33.674Z,100757.65
2019-01-20T02:48:37.116Z,100755.06
2019-01-20T02:53:40.546Z,100764.33
2019-01-20T02:58:44.048Z,100760.44
2019-01-20T03:03:47.483Z,100764.95
2019-01-20T03:08:50.910Z,100765.59
2019-01-20T03:13:54.317Z,100766.77
2019-01-20T03:18:57.800Z,100764.33
2019-01-20T03:24:01.243Z,100767.76
2019-01-20T03:29:04.954Z,100763.86
2019-01-20T03:34:08.378Z,100756.40
2019-01-20T03:39:11.879Z,100758.66
2019-01-20T03:44:15.372Z,100754.25
2019-01-20T03:49:18.787Z,100759.52
2019-01-20T03:54:22.280Z,100766.37
2019-01-20T03:59:25.695Z,100754.06
2019-01-20T04:04:29.125Z,100759.22
2019-01-20T04:09:32.550Z,100754.72
2019-01-20T04:14:35.988Z,100758.45
2019-01-20T04:19:39.416Z,100760.79
2019-01-20T04:24:42.833Z,100752.65
2019-01-20T04:29:46.266Z,100751.72
2019-01-20T04:34:49.698Z,100747.27
2019-01-20T04:39:53.104Z,100748.80
2019-01-20T04:44:56.526Z,100755.44
2019-01-20T04:49:59.953Z,100752.08
2019-01-20T04:55:04.357Z,100757.14
2019-01-20T05:00:10.854Z,100759.98
2019-01-20T05:05:14.503Z,100757.39
2019-01-20T05:10:18.956Z,100752.45
2019-01-20T05:15:23.430Z,100759.58
2019-01-20T05:20:26.847Z,100759.44
2019-01-20T05:25:30.262Z,100756.83
2019-01-20T05:30:33.765Z,100763.62
2019-01-20T05:35:37.350Z,100759.92
2019-01-20T05:40:40.772Z,100760.66
2019-01-20T05:45:44.190Z,100767.28
2019-01-20T05:50:47.784Z,100769.25
2019-01-20T05:55:51.200Z,100777.95
2019-01-20T06:00:54.640Z,100774.14
2019-01-20T06:05:58.061Z,100773.18
2019-01-20T06:11:01.518Z,100777.63
2019-01-20T06:16:05.084Z,100774.82
2019-01-20T06:21:08.505Z,100784.97
2019-01-20T06:26:11.913Z,100788.08
2019-01-20T06:31:15.355Z,100789.13
2019-01-20T06:36:18.775Z,100791.52
2019-01-20T06:41:22.213Z,100786.61
2019-01-20T06:46:25.625Z,100802.03
2019-01-20T06:51:29.041Z,100810.42
2019-01-20T06:56:32.444Z,100812.84
2019-01-20T07:01:35.873Z,100809.25
2019-01-20T07:06:39.498Z,100822.58
2019-01-20T07:11:42.905Z,100831.81
2019-01-20T07:16:46.347Z,100836.74
2019-01-20T07:21:49.762Z,100841.75
2019-01-20T07:26:53.202Z,100839.94
2019-01-20T07:31:56.646Z,100852.25
2019-01-20T07:37:00.149Z,100857.73
2019-01-20T07:42:03.653Z,100866.23
2019-01-20T07:47:07.162Z,100873.20
2019-01-20T07:52:10.575Z,100876.57
2019-01-20T07:57:13.986Z,100882.99
2019-01-20T08:02:17.415Z,100887.98
2019-01-20T08:07:20.860Z,100898.89
2019-01-20T08:12:24.285Z,100897.80
2019-01-20T08:17:27.701Z,100903.25
2019-01-20T08:22:31.215Z,100913.09
2019-01-20T08:27:34.712Z,100915.97
2019-01-20T08:32:38.153Z,100921.33
2019-01-20T08:37:41.817Z,100924.59
2019-01-20T08:42:45.256Z,100933.36
2019-01-20T08:47:50.914Z,100938.23
2019-01-20T08:52:54.365Z,100941.75
2019-01-20T08:57:57.790Z,100953.13
2019-01-20T09:03:01.219Z,100953.04
2019-01-20T09:08:05.174Z,100953.46
2019-01-20T09:13:09.877Z,100965.77
2019-01-20T09:18:13.282Z,100967.61
2019-01-20T09:23:16.711Z,100971.25
2019-01-20T09:28:20.141Z,100968.63
2019-01-20T09:33:24.736Z,100971.19
2019-01-20T09:38:28.279Z,100984.16
2019-01-20T09:43:31.806Z,100984.28
2019-01-20T09:48:35.283Z,100982.02
2019-01-20T09:53:38.705Z,100985.38
2019-01-20T09:58:42.124Z,100986.58
2019-01-20T10:03:45.553Z,100985.02
2019-01-20T10:08:48.989Z,100976.75
2019-01-20T10:13:55.026Z,100987.68
2019-01-20T10:18:57.564Z,101000.30
2019-01-20T10:24:01.065Z,101003.23
2019-01-20T10:29:04.593Z,100996.39
2019-01-20T10:34:08.023Z,100989.90
2019-01-20T10:39:11.533Z,100997.68
2019-01-20T10:44:14.962Z,100994.39
2019-01-20T10:49:18.465Z,100998.66
2019-01-20T10:54:21.927Z,100999.87
2019-01-20T10:59:25.385Z,101008.94
2019-01-20T11:04:28.926Z,101005.31
2019-01-20T11:09:32.430Z,101006.13
2019-01-20T11:14:35.855Z,101005.69
2019-01-20T11:19:39.355Z,101002.74
2019-01-20T11:24:42.797Z,101005.08
2019-01-20T11:29:46.239Z,101005.39
2019-01-20T11:34:49.667Z,101005.47
2019-01-20T11:39:53.124Z,101008.78
2019-01-20T11:44:56.565Z,101002.17
2019-01-20T11:49:59.998Z,101002.85
2019-01-20T11:55:03.739Z,101007.33
2019-01-20T12:00:12.991Z,101002.72
2019-01-20T12:05:17.645Z,101001.88
2019-01-20T12:10:21.513Z,101001.41
2019-01-20T12:15:24.949Z,101005.05
2019-01-20T12:20:28.449Z,101005.11
2019-01-20T12:25:31.994Z,101009.28
2019-01-20T12:30:37.778Z,101001.19
2019-01-20T12:35:41.379Z,101008.17
2019-01-20T12:40:45.931Z,100997.98
2019-01-20T12:45:49.374Z,101003.02
2019-01-20T12:50:52.802Z,100999.92
2019-01-20T12:55:56.304Z,101006.36
2019-01-20T13:00:59.739Z,101007.22
2019-01-20T13:06:03.283Z,101002.23
2019-01-20T13:11:06.793Z,101004.74
2019-01-20T13:16:10.235Z,101005.52
2019-01-20T13:21:13.670Z,100996.19
2019-01-20T13:26:17.180Z,101008.09
2019-01-20T13:31:20.606Z,100999.44
2019-01-20T13:36:24.028Z,101009.89
2019-01-20T13:41:27.466Z,101002.70
2019-01-20T13:46:30.904Z,101004.74
2019-01-20T13:51:34.363Z,101003.22
2019-01-20T13:56:37.815Z,101011.65
2019-01-20T14:01:41.247Z,101011.05
2019-01-20T14:06:44.706Z,101014.98
2019-01-20T14:11:48.169Z,101016.02
2019-01-20T14:16:51.657Z,101010.53
2019-01-20T14:21:55.098Z,101015.50
2019-01-20T14:26:58.520Z,101020.27
2019-01-20T14:32:02.024Z,101026.70
2019-01-20T14:37:05.541Z,101027.34
2019-01-20T14:42:08.987Z,101028.62
2019-01-20T14:47:12.407Z,101030.88
2019-01-20T14:52:15.853Z,101035.78
2019-01-20T14:57:19.305Z,101030.41
2019-01-20T15:02:22.739Z,101043.55
2019-01-20T15:07:26.166Z,101048.90
2019-01-20T15:12:29.680Z,101050.61
2019-01-20T15:17:33.134Z,101053.02
2019-01-20T15:22:36.636Z,101053.75
2019-01-20T15:27:40.146Z,101056.45
2019-01-20T15:32:43.587Z,101056.81
2019-01-20T15:37:47.075Z,101061.60
2019-01-20T15:42:50.761Z,101065.59
2019-01-20T15:48:00.683Z,101078.38
2019-01-20T15:53:08.761Z,101079.12
2019-01-20T15:58:12.309Z,101082.75
2019-01-20T16:03:15.772Z,101089.90
2019-01-20T16:08:19.205Z,101098.23
2019-01-20T16:13:22.740Z,101107.84
2019-01-20T16:18:26.438Z,101109.38
2019-01-20T16:23:29.928Z,101116.34
2019-01-20T16:28:33.371Z,101117.57
2019-01-20T16:33:36.802Z,101124.75
2019-01-20T16:38:40.234Z,101126.30
2019-01-20T16:43:43.657Z,101129.71
2019-01-20T16:48:47.092Z,101136.94
2019-01-20T16:53:50.595Z,101139.03
2019-01-20T16:58:54.165Z,101146.12
2019-01-20T17:03:57.935Z,101148.07
2019-01-20T17:09:01.662Z,101156.78
2019-01-20T17:14:05.422Z,101154.64
2019-01-20T17:19:08.846Z,101164.48
2019-01-20T17:24:12.287Z,101174.31
2019-01-20T17:29:15.697Z,101176.30
2019-01-20T17:34:19.117Z,101174.23
2019-01-20T17:39:22.563Z,101186.76
2019-01-20T17:44:26.004Z,101184.53
2019-01-20T17:49:29.451Z,101183.53
2019-01-20T17:54:32.907Z,101192.95
2019-01-20T17:59:36.350Z,101197.27
2019-01-20T18:04:39.792Z,101207.15
2019-01-20T18:09:43.231Z,101210.64
2019-01-20T18:14:46.669Z,101209.30
2019-01-20T18:19:50.114Z,101216.31
2019-01-20T18:24:53.547Z,101220.93
2019-01-20T18:29:57.864Z,101221.23
2019-01-20T18:35:01.376Z,101228.68
2019-01-20T18:40:10.607Z,101236.64
2019-01-20T18:45:16.624Z,101242.03
2019-01-20T18:50:22.833Z,101239.38
2019-01-20T18:55:26.274Z,101251.58
2019-01-20T19:00:35.589Z,101252.94
2019-01-20T19:05:38.953Z,101252.41
2019-01-20T19:10:42.405Z,101253.86
2019-01-20T19:15:45.915Z,101258.56
2019-01-20T19:20:49.426Z,101263.98
2019-01-20T19:25:52.844Z,101272.14
2019-01-20T19:30:56.289Z,101275.20
2019-01-20T19:35:59.714Z,101279.18
2019-01-20T19:41:04.030Z,101281.50
2019-01-20T19:46:07.727Z,101290.08
2019-01-20T19:51:11.244Z,101290.64
2019-01-20T19:56:14.834Z,101296.41
2019-01-20T20:01:18.349Z,101300.31
2019-01-20T20:06:21.797Z,101302.69
2019-01-20T20:11:25.253Z,101303.30
2019-01-20T20:16:28.734Z,101303.77
2019-01-20T20:21:32.182Z,101311.25
2019-01-20T20:26:35.628Z,101319.41
2019-01-20T20:31:39.043Z,101325.57
2019-01-20T20:36:42.480Z,101332.46
2019-01-20T20:41:45.908Z,101333.77
2019-01-20T20:46:49.347Z,101353.16
2019-01-20T20:51:52.766Z,101360.53
2019-01-20T20:56:56.203Z,101366.58
2019-01-20T21:01:59.634Z,101363.75
2019-01-20T21:07:03.092Z,101371.80
2019-01-20T21:12:06.594Z,101375.50
2019-01-20T21:17:10.040Z,101372.00
2019-01-20T21:22:13.464Z,101377.69
2019-01-20T21:27:16.890Z,101378.42
2019-01-20T21:32:20.331Z,101382.00
2019-01-20T21:37:23.776Z,101391.76
2019-01-20T21:42:27.205Z,101390.12
2019-01-20T21:47:30.667Z,101392.60
2019-01-20T21:52:34.235Z,101396.56
2019-01-20T21:57:37.743Z,101393.19
2019-01-20T22:02:41.283Z,101399.78
2019-01-20T22:07:44.786Z,101407.05
2019-01-20T22:12:48.248Z,101409.56
2019-01-20T22:17:51.775Z,101415.60
2019-01-20T22:22:55.198Z,101421.75
2019-01-20T22:27:58.732Z,101426.53
2019-01-20T22:33:02.155Z,101426.22
2019-01-20T22:38:05.703Z,101428.39
2019-01-20T22:43:09.136Z,101435.92
2019-01-20T22:48:12.581Z,101437.41
2019-01-20T22:53:16.088Z,101435.06
2019-01-20T22:58:19.523Z,101447.48
2019-01-20T23:03:23.115Z,101448.23
2019-01-20T23:08:26.579Z,101449.21
2019-01-20T23:13:30.078Z,101459.76
2019-01-20T23:18:33.538Z,101451.69
2019-01-20T23:23:36.959Z,101455.77
2019-01-20T23:28:40.505Z,101458.03
2019-01-20T23:33:43.916Z,101461.25
2019-01-20T23:38:47.357Z,101458.88
2019-01-20T23:43:50.886Z,101458.09
2019-01-20T23:48:54.368Z,101456.56
2019-01-20T23:53:57.791Z,101457.72
2019-01-20T23:59:01.222Z,101459.73
